Welcome to Northern Hawkes Bay. New Zealand.
PWS Header
      nz Flag



Hit Counter


W3C Valid W3C Valid logo


    Wairoa

Select any of the Stations below to visit their websites.










Historic Data from Weather Underground
Select the location of interest below. Wairoa is the default. Please have patience, this Data is slow to load in.
Northern Hawkes Bay Historical Data
Daily Summary for October 10, 2017 Units:  Metric    English   Both
« Previous Day
Next Day »
Daily Weekly Monthly Yearly Custom
  High: Low: Average:
Temperature: 22.5 °C 11.6 °C 16.1 °C
Dew Point: 15.9 °C 7.6 °C 10.6 °C
Humidity: 98% 47% 71%
Wind Speed: 31.7km/h 0.0km/h 7.8km/h
Wind Gust: 50.0km/h - -
Wind- - WNW
Pressure: 1003.9 hPa 1000.9 hPa -
Precipitation: 0.0 mm    
Historical Graphs
 
 
Tabular Data for October 10, 2017
Time Temperature Dew Point Pressure Wind Wind Speed Wind Gust Humidity Rainfall Rate (Hourly) solar
00:04 20.3 °C 15.9 °C 1002.3 hPa ENE 5.0 km/h 11.1 km/h 76% 0.3 mm 289 W/m2
00:09 21.1 °C 15.7 °C 1002.3 hPa ENE 3.5 km/h 11.1 km/h 71% 0.3 mm 295 W/m2
00:14 21.8 °C 15.7 °C 1002.3 hPa NE 3.5 km/h 9.7 km/h 68% 0.3 mm 276 W/m2
00:19 22.1 °C 14.7 °C 1002.6 hPa NE 3.5 km/h 9.7 km/h 63% 0.0 mm 263 W/m2
00:24 22.5 °C 14.9 °C 1002.3 hPa NNE 3.5 km/h 9.7 km/h 62% 0.0 mm 226 W/m2
00:29 21.6 °C 14.8 °C 1002.3 hPa NNE 3.5 km/h 8.7 km/h 65% 0.0 mm 81 W/m2
00:34 20.5 °C 14.6 °C 1001.9 hPa North 1.1 km/h 8.7 km/h 69% 0.0 mm 71 W/m2
00:39 19.8 °C 14.8 °C 1001.9 hPa Calm   8.7 km/h 73% 0.0 mm 75 W/m2
00:44 19.5 °C 14.8 °C 1001.9 hPa NNE 2.6 km/h 7.2 km/h 74% 0.0 mm 111 W/m2
00:49 19.9 °C 15.6 °C 1001.9 hPa Calm   7.2 km/h 76% 0.0 mm 101 W/m2
00:54 19.9 °C 15.2 °C 1002.3 hPa North 1.1 km/h 7.2 km/h 74% 0.0 mm 91 W/m2
01:00 19.5 °C 14.9 °C 1002.3 hPa North 5.0 km/h 8.7 km/h 75% 0.0 mm 71 W/m2
01:05 19.3 °C 14.8 °C 1002.3 hPa North 7.2 km/h 15.8 km/h 75% 0.0 mm 64 W/m2
01:10 19.2 °C 13.2 °C 1002.3 hPa NNW 11.1 km/h 19.5 km/h 68% 0.0 mm 65 W/m2
01:15 19.1 °C 12.6 °C 1002.3 hPa NNW 5.0 km/h 20.9 km/h 66% 0.0 mm 76 W/m2
01:20 19.1 °C 13.1 °C 1002.3 hPa NNW 7.2 km/h 20.9 km/h 68% 0.0 mm 82 W/m2
01:25 19.1 °C 12.6 °C 1002.3 hPa NW 12.2 km/h 19.5 km/h 66% 0.0 mm 66 W/m2
01:30 18.9 °C 12.4 °C 1002.6 hPa NW 9.7 km/h 19.5 km/h 66% 0.0 mm 47 W/m2
01:35 18.7 °C 12.2 °C 1002.6 hPa NW 9.7 km/h 18.3 km/h 66% 0.0 mm 35 W/m2
01:40 18.5 °C 12.1 °C 1002.6 hPa NNW 9.7 km/h 18.3 km/h 66% 0.0 mm 27 W/m2
01:46 18.4 °C 12.2 °C 1002.6 hPa NNW 3.5 km/h 14.8 km/h 67% 0.0 mm 19 W/m2
01:51 18.2 °C 12.2 °C 1002.6 hPa North 7.2 km/h 17.2 km/h 68% 0.0 mm 12 W/m2
01:56 18.1 °C 12.1 °C 1002.6 hPa NNW 7.2 km/h 17.2 km/h 68% 0.0 mm 8 W/m2
02:01 17.9 °C 12.3 °C 1002.3 hPa NNW 2.6 km/h 12.2 km/h 70% 0.0 mm 6 W/m2
02:06 17.7 °C 12.4 °C 1002.6 hPa NNW 3.5 km/h 12.2 km/h 71% 0.0 mm 5 W/m2
02:11 17.6 °C 12.5 °C 1002.6 hPa Calm   12.2 km/h 72% 0.0 mm 3 W/m2
02:21 17.4 °C 12.7 °C 1002.6 hPa NNW 3.5 km/h 6.1 km/h 74% 0.0 mm 0 W/m2
02:26 17.4 °C 12.7 °C 1002.6 hPa NNW 1.1 km/h 7.2 km/h 74% 0.0 mm 0 W/m2
02:31 17.3 °C 12.8 °C 1002.6 hPa North 1.1 km/h 8.7 km/h 75% 0.0 mm 0 W/m2
02:36 17.2 °C 12.7 °C 1002.6 hPa North 1.1 km/h 8.7 km/h 75% 0.0 mm 0 W/m2
02:41 17.1 °C 12.7 °C 1002.6 hPa North 2.6 km/h 6.1 km/h 75% 0.0 mm 0 W/m2
02:46 17.0 °C 12.6 °C 1002.6 hPa North 1.1 km/h 6.1 km/h 75% 0.0 mm 0 W/m2
02:51 16.9 °C 12.7 °C 1002.6 hPa Calm   6.1 km/h 76% 0.0 mm 0 W/m2
02:56 16.7 °C 12.7 °C 1002.6 hPa NNW 2.6 km/h 5.0 km/h 77% 0.0 mm 0 W/m2
03:01 16.7 °C 12.7 °C 1002.6 hPa North 5.0 km/h 8.7 km/h 77% 0.0 mm 0 W/m2
03:06 16.7 °C 12.7 °C 1002.6 hPa North 2.6 km/h 11.1 km/h 77% 0.0 mm 0 W/m2
03:11 16.7 °C 12.7 °C 1002.6 hPa North 2.6 km/h 11.1 km/h 77% 0.0 mm 0 W/m2
03:16 16.6 °C 12.8 °C 1002.9 hPa NNW 5.0 km/h 11.1 km/h 78% 0.0 mm 0 W/m2
03:21 16.5 °C 12.7 °C 1002.6 hPa NNW 3.5 km/h 11.1 km/h 78% 0.0 mm 0 W/m2
03:26 16.4 °C 12.6 °C 1002.6 hPa NNW 7.2 km/h 13.4 km/h 78% 0.0 mm 0 W/m2
03:31 16.4 °C 12.6 °C 1002.9 hPa NNW 12.2 km/h 17.2 km/h 78% 0.0 mm 0 W/m2
03:36 16.4 °C 12.4 °C 1002.6 hPa North 8.7 km/h 17.2 km/h 77% 0.0 mm 0 W/m2
03:41 16.4 °C 12.4 °C 1002.6 hPa NNW 8.7 km/h 17.2 km/h 77% 0.0 mm 0 W/m2
03:46 16.2 °C 12.4 °C 1002.9 hPa NNW 7.2 km/h 14.8 km/h 78% 0.0 mm 0 W/m2
03:52 16.0 °C 12.4 °C 1003.3 hPa NW 5.0 km/h 12.2 km/h 79% 0.0 mm 0 W/m2
03:57 15.8 °C 12.6 °C 1003.3 hPa NW 6.1 km/h 11.1 km/h 81% 0.0 mm 0 W/m2
04:02 15.7 °C 12.7 °C 1003.3 hPa NNW 6.1 km/h 11.1 km/h 82% 0.0 mm 0 W/m2
04:07 15.7 °C 12.7 °C 1003.3 hPa NNW 5.0 km/h 9.7 km/h 82% 0.0 mm 0 W/m2
04:12 15.7 °C 12.7 °C 1003.3 hPa NNW 3.5 km/h 9.7 km/h 82% 0.0 mm 0 W/m2
04:17 15.6 °C 12.6 °C 1002.9 hPa NNW 1.1 km/h 9.7 km/h 82% 0.0 mm 0 W/m2
04:20 15.5 °C 12.6 °C 1003.3 hPa NNW 3.5 km/h 7.2 km/h 83% 0.0 mm 0 W/m2
04:30 15.3 °C 12.4 °C 1003.3 hPa North 1.1 km/h 5.0 km/h 83% 0.0 mm 0 W/m2
04:35 15.1 °C 12.2 °C 1003.3 hPa Calm   5.0 km/h 83% 0.0 mm 0 W/m2
04:40 14.9 °C 12.4 °C 1002.9 hPa NNE 1.1 km/h 3.5 km/h 85% 0.0 mm 0 W/m2
04:45 14.8 °C 12.3 °C 1002.9 hPa NNE 1.1 km/h 3.5 km/h 85% 0.0 mm 0 W/m2
04:50 14.7 °C 12.4 °C 1002.9 hPa North 1.1 km/h 3.5 km/h 86% 0.0 mm 0 W/m2
04:56 14.6 °C 12.3 °C 1002.9 hPa North 2.6 km/h 3.5 km/h 86% 0.0 mm 0 W/m2
05:01 14.6 °C 12.3 °C 1002.9 hPa Calm   3.5 km/h 86% 0.0 mm 0 W/m2
05:06 14.5 °C 12.2 °C 1002.9 hPa Calm   3.5 km/h 86% 0.0 mm 0 W/m2
05:11 14.5 °C 12.2 °C 1002.9 hPa Calm   3.5 km/h 86% 0.0 mm 0 W/m2
05:21 14.4 °C 12.1 °C 1002.6 hPa NNW 1.1 km/h 3.5 km/h 86% 0.0 mm 0 W/m2
05:26 14.2 °C 11.9 °C 1002.6 hPa Calm   2.6 km/h 86% 0.0 mm 0 W/m2
05:31 13.9 °C 11.9 °C 1002.6 hPa Calm   2.6 km/h 88% 0.0 mm 0 W/m2
05:36 13.7 °C 11.8 °C 1002.6 hPa Calm   1.1 km/h 88% 0.0 mm 0 W/m2
05:41 13.6 °C 11.8 °C 1002.6 hPa Calm     89% 0.0 mm 0 W/m2
05:46 13.5 °C 11.7 °C 1002.6 hPa Calm     89% 0.0 mm 0 W/m2
05:51 13.4 °C 11.8 °C 1002.6 hPa Calm     90% 0.0 mm 0 W/m2
05:56 13.1 °C 11.3 °C 1002.6 hPa Calm     89% 0.0 mm 0 W/m2
06:01 13.0 °C 11.4 °C 1002.6 hPa Calm     90% 0.0 mm 0 W/m2
06:06 12.8 °C 11.4 °C 1002.6 hPa Calm     91% 0.0 mm 0 W/m2
06:11 12.6 °C 11.2 °C 1002.3 hPa Calm     91% 0.0 mm 0 W/m2
06:16 12.5 °C 11.2 °C 1002.3 hPa Calm     92% 0.0 mm 0 W/m2
06:21 12.5 °C 11.4 °C 1002.6 hPa Calm     93% 0.0 mm 0 W/m2
06:26 12.3 °C 11.4 °C 1002.3 hPa SW 1.1 km/h 2.6 km/h 94% 0.0 mm 0 W/m2
06:31 12.2 °C 11.3 °C 1002.3 hPa Calm   2.6 km/h 94% 0.0 mm 0 W/m2
06:36 12.1 °C 11.3 °C 1002.6 hPa Calm   2.6 km/h 95% 0.0 mm 0 W/m2
06:41 12.0 °C 11.2 °C 1002.6 hPa Calm     95% 0.0 mm 0 W/m2
06:51 11.8 °C 11.2 °C 1002.6 hPa Calm     96% 0.0 mm 0 W/m2
06:56 11.8 °C 11.2 °C 1002.3 hPa Calm     96% 0.0 mm 0 W/m2
07:01 11.8 °C 11.3 °C 1002.3 hPa Calm     97% 0.0 mm 0 W/m2
07:06 11.8 °C 11.3 °C 1002.3 hPa Calm   1.1 km/h 97% 0.0 mm 0 W/m2
07:11 11.7 °C 11.4 °C 1002.3 hPa Calm   2.6 km/h 98% 0.0 mm 0 W/m2
07:16 11.7 °C 11.4 °C 1002.3 hPa Calm   2.6 km/h 98% 0.0 mm 0 W/m2
07:21 11.6 °C 11.3 °C 1002.3 hPa Calm   1.1 km/h 98% 0.0 mm 0 W/m2
07:26 11.6 °C 11.3 °C 1002.3 hPa Calm     98% 0.0 mm 0 W/m2
07:31 11.7 °C 11.4 °C 1002.3 hPa Calm   2.6 km/h 98% 0.0 mm 0 W/m2
07:36 12.0 °C 11.6 °C 1002.3 hPa North 2.6 km/h 7.2 km/h 97% 0.0 mm 0 W/m2
07:41 12.7 °C 12.2 °C 1002.3 hPa North 5.0 km/h 11.1 km/h 97% 0.0 mm 0 W/m2
07:46 13.6 °C 12.8 °C 1002.3 hPa North 5.0 km/h 12.2 km/h 95% 0.0 mm 0 W/m2
08:10 15.1 °C 11.9 °C 1001.9 hPa North 5.0 km/h 14.8 km/h 81% 0.0 mm 0 W/m2
08:20 15.0 °C 11.8 °C 1002.3 hPa NNW 3.5 km/h 9.7 km/h 81% 0.0 mm 0 W/m2
08:25 14.9 °C 12.1 °C 1001.9 hPa NNW 3.5 km/h 7.2 km/h 83% 0.0 mm 0 W/m2
08:30 14.7 °C 12.1 °C 1001.9 hPa NNW 3.5 km/h 9.7 km/h 84% 0.0 mm 0 W/m2
08:35 14.6 °C 11.9 °C 1002.3 hPa NNW 5.0 km/h 9.7 km/h 84% 0.0 mm 0 W/m2
08:40 14.8 °C 12.1 °C 1001.9 hPa North 2.6 km/h 7.2 km/h 84% 0.0 mm 0 W/m2
08:45 14.8 °C 12.1 °C 1001.9 hPa NNW 1.1 km/h 7.2 km/h 84% 0.0 mm 0 W/m2
08:50 14.7 °C 12.1 °C 1001.9 hPa NW 1.1 km/h 6.1 km/h 84% 0.0 mm 0 W/m2
08:56 14.5 °C 11.8 °C 1001.9 hPa NNW 2.6 km/h 5.0 km/h 84% 0.0 mm 0 W/m2
09:02 14.4 °C 11.7 °C 1001.9 hPa NNW 1.1 km/h 5.0 km/h 84% 0.0 mm 0 W/m2
09:07 14.3 °C 11.6 °C 1001.6 hPa NNW 1.1 km/h 3.5 km/h 84% 0.0 mm 0 W/m2
09:12 14.3 °C 11.6 °C 1001.9 hPa Calm   5.0 km/h 84% 0.0 mm 0 W/m2
09:17 14.3 °C 11.6 °C 1001.6 hPa North 2.6 km/h 5.0 km/h 84% 0.0 mm 0 W/m2
09:22 14.4 °C 11.7 °C 1001.6 hPa North 2.6 km/h 8.7 km/h 84% 0.0 mm 0 W/m2
09:27 14.6 °C 11.8 °C 1001.6 hPa NNW 2.6 km/h 9.7 km/h 83% 0.0 mm 0 W/m2
09:32 14.8 °C 11.6 °C 1001.6 hPa NNW 2.6 km/h 9.7 km/h 81% 0.0 mm 0 W/m2
09:37 14.8 °C 11.6 °C 1001.6 hPa North 2.6 km/h 9.7 km/h 81% 0.0 mm 0 W/m2
09:42 14.7 °C 11.3 °C 1001.6 hPa North 2.6 km/h 9.7 km/h 80% 0.0 mm 0 W/m2
09:47 14.9 °C 11.5 °C 1001.6 hPa North 7.2 km/h 12.2 km/h 80% 0.0 mm 0 W/m2
09:52 15.1 °C 11.3 °C 1001.2 hPa North 9.7 km/h 17.2 km/h 78% 0.0 mm 0 W/m2
09:57 15.2 °C 11.2 °C 1001.2 hPa North 6.1 km/h 17.2 km/h 77% 0.0 mm 0 W/m2
10:02 15.2 °C 11.0 °C 1001.2 hPa North 3.5 km/h 13.4 km/h 76% 0.0 mm 0 W/m2
10:07 15.2 °C 11.0 °C 1001.2 hPa North 5.0 km/h 13.4 km/h 76% 0.0 mm 0 W/m2
10:12 15.1 °C 10.9 °C 1001.2 hPa North 8.7 km/h 13.4 km/h 76% 0.0 mm 0 W/m2
10:17 15.2 °C 11.0 °C 1001.2 hPa North 3.5 km/h 13.4 km/h 76% 0.0 mm 0 W/m2
10:22 15.0 °C 10.8 °C 1001.2 hPa North 3.5 km/h 13.4 km/h 76% 0.0 mm 0 W/m2
10:27 14.9 °C 10.9 °C 1001.2 hPa NNW 5.0 km/h 9.7 km/h 77% 0.0 mm 0 W/m2
10:32 14.8 °C 11.0 °C 1001.2 hPa NNW 3.5 km/h 12.2 km/h 78% 0.0 mm 0 W/m2
10:37 14.7 °C 10.9 °C 1001.2 hPa NNW 5.0 km/h 12.2 km/h 78% 0.0 mm 0 W/m2
10:42 14.7 °C 10.9 °C 1001.2 hPa North 2.6 km/h 8.7 km/h 78% 0.0 mm 0 W/m2
10:47 14.4 °C 10.8 °C 1001.2 hPa NNW 2.6 km/h 8.7 km/h 79% 0.0 mm 0 W/m2
10:52 14.2 °C 10.6 °C 1001.2 hPa Calm   6.1 km/h 79% 0.0 mm 0 W/m2
10:57 13.9 °C 10.7 °C 1001.2 hPa Calm   3.5 km/h 81% 0.0 mm 0 W/m2
11:02 13.8 °C 10.8 °C 1001.2 hPa Calm   1.1 km/h 82% 0.0 mm 0 W/m2
11:07 13.6 °C 10.6 °C 1000.9 hPa Calm     82% 0.0 mm 0 W/m2
11:12 13.4 °C 10.6 °C 1000.9 hPa Calm     83% 0.0 mm 0 W/m2
11:22 13.0 °C 10.4 °C 1000.9 hPa Calm     84% 0.0 mm 0 W/m2
11:27 13.1 °C 10.7 °C 1001.2 hPa Calm     85% 0.0 mm 0 W/m2
11:37 13.0 °C 10.6 °C 1001.2 hPa Calm     85% 0.0 mm 0 W/m2
11:42 13.0 °C 10.7 °C 1001.2 hPa Calm   1.1 km/h 86% 0.0 mm 0 W/m2
11:47 13.1 °C 10.8 °C 1001.2 hPa Calm   1.1 km/h 86% 0.0 mm 0 W/m2
11:52 13.2 °C 10.9 °C 1001.2 hPa Calm     86% 0.0 mm 0 W/m2
11:57 13.2 °C 10.9 °C 1001.2 hPa Calm     86% 0.0 mm 0 W/m2
12:02 13.2 °C 10.9 °C 1000.9 hPa Calm     86% 0.0 mm 0 W/m2
12:07 13.0 °C 10.7 °C 1000.9 hPa Calm     86% 0.0 mm 0 W/m2
12:12 12.9 °C 10.6 °C 1000.9 hPa Calm     86% 0.0 mm 0 W/m2
12:17 12.9 °C 10.6 °C 1001.2 hPa Calm     86% 0.0 mm 0 W/m2
12:22 13.0 °C 10.7 °C 1001.2 hPa Calm     86% 0.0 mm 0 W/m2
12:27 12.8 °C 10.5 °C 1001.2 hPa Calm     86% 0.0 mm 0 W/m2
12:32 12.6 °C 10.3 °C 1001.2 hPa Calm     86% 0.0 mm 0 W/m2
12:37 12.6 °C 10.5 °C 1001.2 hPa Calm     87% 0.0 mm 0 W/m2
12:42 12.5 °C 10.4 °C 1001.6 hPa Calm     87% 0.0 mm 0 W/m2
12:47 12.5 °C 10.4 °C 1001.2 hPa Calm     87% 0.0 mm 0 W/m2
12:52 12.5 °C 10.6 °C 1001.6 hPa Calm     88% 0.0 mm 0 W/m2
12:57 12.4 °C 10.4 °C 1001.6 hPa Calm     88% 0.0 mm 0 W/m2
13:02 12.7 °C 10.9 °C 1001.6 hPa NE 3.5 km/h 7.2 km/h 89% 0.0 mm 0 W/m2
13:07 13.2 °C 11.1 °C 1001.6 hPa NNE 1.1 km/h 7.2 km/h 87% 0.0 mm 0 W/m2
13:12 13.1 °C 11.0 °C 1001.6 hPa North 5.0 km/h 7.2 km/h 87% 0.0 mm 0 W/m2
13:17 13.1 °C 11.0 °C 1001.2 hPa North 3.5 km/h 7.2 km/h 87% 0.0 mm 0 W/m2
13:22 13.0 °C 10.9 °C 1001.2 hPa North 2.6 km/h 7.2 km/h 87% 0.0 mm 0 W/m2
13:23 13.0 °C 10.9 °C 1001.2 hPa North 2.6 km/h 7.2 km/h 87% 0.0 mm 0 W/m2
13:33 13.0 °C 10.9 °C 1001.2 hPa North 1.1 km/h 6.1 km/h 87% 0.0 mm 1 W/m2
13:38 13.0 °C 10.7 °C 1001.6 hPa North 2.6 km/h 6.1 km/h 86% 0.0 mm 3 W/m2
13:43 13.1 °C 10.8 °C 1001.2 hPa North 5.0 km/h 9.7 km/h 86% 0.0 mm 6 W/m2
13:48 13.3 °C 10.8 °C 1001.2 hPa North 5.0 km/h 9.7 km/h 85% 0.0 mm 10 W/m2
13:53 13.3 °C 10.7 °C 1001.6 hPa Calm   8.7 km/h 84% 0.0 mm 21 W/m2
13:58 13.5 °C 10.7 °C 1001.6 hPa North 1.1 km/h 7.2 km/h 83% 0.0 mm 53 W/m2
14:03 13.8 °C 10.9 °C 1001.6 hPa WNW 3.5 km/h 9.7 km/h 83% 0.0 mm 68 W/m2
14:08 14.5 °C 10.3 °C 1001.6 hPa NNW 8.7 km/h 17.2 km/h 76% 0.0 mm 82 W/m2
14:13 15.0 °C 10.2 °C 1001.6 hPa NNW 6.1 km/h 18.3 km/h 73% 0.0 mm 94 W/m2
14:18 15.1 °C 10.1 °C 1001.6 hPa NNW 7.2 km/h 18.3 km/h 72% 0.0 mm 109 W/m2
14:23 15.3 °C 10.3 °C 1001.6 hPa NNW 6.1 km/h 15.8 km/h 72% 0.0 mm 113 W/m2
14:28 15.2 °C 10.0 °C 1001.6 hPa NNW 5.0 km/h 15.8 km/h 71% 0.0 mm 31 W/m2
14:33 14.8 °C 10.0 °C 1001.6 hPa NNW 6.1 km/h 12.2 km/h 73% 0.0 mm 40 W/m2
14:38 14.9 °C 10.1 °C 1001.9 hPa NNW 7.2 km/h 13.4 km/h 73% 0.0 mm 134 W/m2
14:43 15.5 °C 10.1 °C 1001.9 hPa NNW 7.2 km/h 21.9 km/h 70% 0.0 mm 142 W/m2
14:48 15.9 °C 10.2 °C 1001.9 hPa NNW 12.2 km/h 21.9 km/h 69% 0.0 mm 149 W/m2
14:53 16.2 °C 9.6 °C 1001.9 hPa NW 9.7 km/h 20.9 km/h 65% 0.0 mm 156 W/m2
14:58 16.3 °C 9.5 °C 1001.9 hPa NW 7.2 km/h 20.9 km/h 64% 0.0 mm 162 W/m2
15:03 16.5 °C 9.7 °C 1002.3 hPa NW 7.2 km/h 18.3 km/h 64% 0.0 mm 166 W/m2
15:08 16.6 °C 9.8 °C 1002.3 hPa NW 7.2 km/h 18.3 km/h 64% 0.0 mm 172 W/m2
15:13 16.5 °C 9.2 °C 1002.3 hPa NW 7.2 km/h 24.5 km/h 62% 0.0 mm 178 W/m2
15:18 16.5 °C 9.2 °C 1002.3 hPa NNW 18.3 km/h 31.7 km/h 62% 0.0 mm 184 W/m2
15:23 16.5 °C 9.2 °C 1002.3 hPa NNW 9.7 km/h 31.7 km/h 62% 0.0 mm 192 W/m2
15:28 16.6 °C 9.1 °C 1002.3 hPa NW 12.2 km/h 31.7 km/h 61% 0.0 mm 199 W/m2
15:33 16.6 °C 9.1 °C 1002.3 hPa NW 11.1 km/h 31.7 km/h 61% 0.0 mm 209 W/m2
15:51 17.3 °C 8.4 °C 1002.6 hPa NNW 14.8 km/h 31.7 km/h 56% 0.0 mm 80 W/m2
15:56 16.6 °C 7.8 °C 1002.6 hPa NW 23.3 km/h 29.4 km/h 56% 0.0 mm 262 W/m2
16:01 17.2 °C 8.3 °C 1002.6 hPa NW 7.2 km/h 29.4 km/h 56% 0.0 mm 275 W/m2
16:06 17.4 °C 8.3 °C 1002.6 hPa NW 8.7 km/h 28.0 km/h 55% 0.0 mm 293 W/m2
16:11 17.7 °C 8.3 °C 1002.9 hPa NW 7.2 km/h 19.5 km/h 54% 0.0 mm 305 W/m2
16:16 17.7 °C 8.3 °C 1002.9 hPa WNW 9.7 km/h 19.5 km/h 54% 0.0 mm 304 W/m2
16:21 17.8 °C 8.4 °C 1002.9 hPa NW 13.4 km/h 19.5 km/h 54% 0.0 mm 324 W/m2
16:26 17.8 °C 8.4 °C 1002.9 hPa NW 8.7 km/h 20.9 km/h 54% 0.0 mm 328 W/m2
16:31 17.9 °C 8.2 °C 1002.6 hPa NW 9.7 km/h 29.4 km/h 53% 0.0 mm 265 W/m2
16:36 17.7 °C 8.3 °C 1002.6 hPa NNW 17.2 km/h 33.1 km/h 54% 0.0 mm 345 W/m2
16:41 17.8 °C 8.1 °C 1002.9 hPa NNW 21.9 km/h 33.1 km/h 53% 0.0 mm 352 W/m2
16:56 18.1 °C 8.1 °C 1002.9 hPa NW 7.2 km/h 27.0 km/h 52% 0.0 mm 379 W/m2
17:02 18.2 °C 8.2 °C 1002.9 hPa NNW 12.2 km/h 27.0 km/h 52% 0.0 mm 444 W/m2
17:07 18.6 °C 8.6 °C 1002.9 hPa NNW 17.2 km/h 28.0 km/h 52% 0.0 mm 272 W/m2
17:12 17.9 °C 7.6 °C 1002.9 hPa WNW 8.7 km/h 28.0 km/h 51% 0.0 mm 250 W/m2
17:17 17.9 °C 8.2 °C 1002.9 hPa NW 23.3 km/h 33.1 km/h 53% 0.0 mm 516 W/m2
17:22 17.9 °C 7.9 °C 1002.9 hPa NW 12.2 km/h 33.1 km/h 52% 0.0 mm 226 W/m2
17:27 17.6 °C 8.2 °C 1002.9 hPa NW 7.2 km/h 33.1 km/h 54% 0.0 mm 429 W/m2
17:37 17.6 °C 8.2 °C 1002.9 hPa NW 11.1 km/h 33.1 km/h 54% 0.0 mm 225 W/m2
17:42 17.4 °C 8.0 °C 1002.6 hPa NW 12.2 km/h 33.1 km/h 54% 0.0 mm 223 W/m2
17:47 17.2 °C 7.8 °C 1002.6 hPa NNW 8.7 km/h 34.3 km/h 54% 0.0 mm 223 W/m2
17:52 17.2 °C 8.3 °C 1002.6 hPa NW 11.1 km/h 34.3 km/h 56% 0.0 mm 257 W/m2
17:57 17.2 °C 8.6 °C 1002.6 hPa NW 6.1 km/h 24.5 km/h 57% 0.0 mm 360 W/m2
18:02 17.5 °C 8.9 °C 1002.6 hPa NW 13.4 km/h 23.3 km/h 57% 0.0 mm 239 W/m2
18:07 17.4 °C 8.6 °C 1002.6 hPa NW 12.2 km/h 23.3 km/h 56% 0.0 mm 311 W/m2
18:12 17.4 °C 8.6 °C 1002.6 hPa NNW 12.2 km/h 27.0 km/h 56% 0.0 mm 208 W/m2
18:17 17.3 °C 8.4 °C 1002.6 hPa NNW 29.4 km/h 37.8 km/h 56% 0.0 mm 193 W/m2
18:22 17.1 °C 7.7 °C 1002.6 hPa NW 20.9 km/h 37.8 km/h 54% 0.0 mm 200 W/m2
18:27 17.1 °C 8.0 °C 1002.6 hPa NW 9.7 km/h 37.8 km/h 55% 0.0 mm 165 W/m2
18:32 17.4 °C 8.8 °C 1001.9 hPa NW 14.8 km/h 30.6 km/h 57% 0.0 mm 358 W/m2
18:37 18.1 °C 8.7 °C 1002.3 hPa NW 20.9 km/h 36.7 km/h 54% 0.0 mm 669 W/m2
18:42 18.5 °C 8.4 °C 1002.3 hPa NNW 15.8 km/h 36.7 km/h 52% 0.0 mm 742 W/m2
18:58 18.2 °C 8.7 °C 1002.6 hPa NNW 8.7 km/h 23.3 km/h 54% 0.0 mm 381 W/m2
19:03 18.2 °C 8.4 °C 1002.6 hPa NW 11.1 km/h 28.0 km/h 53% 0.0 mm 188 W/m2
19:09 18.2 °C 8.4 °C 1002.6 hPa NW 15.8 km/h 34.3 km/h 53% 0.0 mm 198 W/m2
19:14 18.0 °C 8.0 °C 1002.3 hPa NW 18.3 km/h 34.3 km/h 52% 0.0 mm 180 W/m2
19:19 18.0 °C 8.0 °C 1002.3 hPa NW 27.0 km/h 41.7 km/h 52% 0.0 mm 297 W/m2
19:24 18.0 °C 8.0 °C 1001.9 hPa NW 23.3 km/h 41.7 km/h 52% 0.0 mm 343 W/m2
19:29 18.1 °C 8.4 °C 1002.3 hPa NW 21.9 km/h 37.8 km/h 53% 0.0 mm 795 W/m2
19:34 18.5 °C 8.4 °C 1002.3 hPa NW 17.2 km/h 37.8 km/h 52% 0.0 mm 308 W/m2
19:39 18.7 °C 9.2 °C 1002.3 hPa NW 18.3 km/h 36.7 km/h 54% 0.0 mm 241 W/m2
19:44 18.6 °C 8.8 °C 1002.3 hPa NW 12.2 km/h 33.1 km/h 53% 0.0 mm 501 W/m2
19:49 18.7 °C 8.4 °C 1002.3 hPa NW 13.4 km/h 42.8 km/h 51% 0.0 mm 247 W/m2
19:55 18.9 °C 8.6 °C 1001.9 hPa NNW 18.3 km/h 42.8 km/h 51% 0.0 mm 331 W/m2
20:00 19.1 °C 8.4 °C 1001.9 hPa NW 24.5 km/h 41.7 km/h 50% 0.0 mm 753 W/m2
20:05 19.7 °C 8.7 °C 1001.9 hPa NW 20.9 km/h 35.6 km/h 49% 0.0 mm 908 W/m2
20:10 20.2 °C 9.2 °C 1001.9 hPa NW 15.8 km/h 35.6 km/h 49% 0.0 mm 956 W/m2
20:15 20.2 °C 9.2 °C 1001.9 hPa NW 18.3 km/h 28.0 km/h 49% 0.0 mm 863 W/m2
20:20 20.2 °C 8.6 °C 1001.9 hPa NW 24.5 km/h 34.3 km/h 47% 0.0 mm 214 W/m2
20:26 19.7 °C 8.7 °C 1002.3 hPa NW 20.9 km/h 34.3 km/h 49% 0.0 mm 336 W/m2
20:31 19.7 °C 8.7 °C 1002.6 hPa NW 21.9 km/h 41.7 km/h 49% 0.0 mm 442 W/m2
20:36 19.5 °C 8.5 °C 1002.6 hPa NW 21.9 km/h 41.7 km/h 49% 0.0 mm 833 W/m2
20:41 19.8 °C 8.5 °C 1002.3 hPa NW 19.5 km/h 34.3 km/h 48% 0.0 mm 881 W/m2
20:46 19.8 °C 8.8 °C 1002.6 hPa NW 25.6 km/h 34.3 km/h 49% 0.0 mm 546 W/m2
20:51 19.2 °C 8.2 °C 1002.6 hPa NW 14.8 km/h 31.7 km/h 49% 0.0 mm 276 W/m2
20:56 19.3 °C 8.3 °C 1002.6 hPa NW 19.5 km/h 40.4 km/h 49% 0.0 mm 446 W/m2
21:01 19.2 °C 8.2 °C 1002.9 hPa NNW 19.5 km/h 40.4 km/h 49% 0.0 mm 223 W/m2
21:06 18.8 °C 8.2 °C 1002.3 hPa NNW 19.5 km/h 39.3 km/h 50% 0.0 mm 177 W/m2
21:11 18.5 °C 8.4 °C 1002.6 hPa NW 17.2 km/h 36.7 km/h 52% 0.0 mm 172 W/m2
21:16 18.6 °C 9.4 °C 1002.6 hPa NW 15.8 km/h 34.3 km/h 55% 0.0 mm 182 W/m2
21:21 18.3 °C 8.3 °C 1002.6 hPa NW 23.3 km/h 34.3 km/h 52% 0.0 mm 163 W/m2
21:26 18.1 °C 8.4 °C 1002.3 hPa NW 15.8 km/h 36.7 km/h 53% 0.0 mm 217 W/m2
21:31 18.1 °C 8.1 °C 1002.3 hPa NW 25.6 km/h 47.9 km/h 52% 0.0 mm 191 W/m2
21:36 18.0 °C 8.6 °C 1002.3 hPa NW 31.7 km/h 47.9 km/h 54% 0.0 mm 413 W/m2
21:41 18.4 °C 9.2 °C 1002.3 hPa NW 21.9 km/h 41.7 km/h 55% 0.0 mm 236 W/m2
21:46 18.1 °C 8.7 °C 1002.6 hPa NW 24.5 km/h 42.8 km/h 54% 0.0 mm 275 W/m2
21:51 18.2 °C 9.0 °C 1002.6 hPa NW 23.3 km/h 42.8 km/h 55% 0.0 mm 289 W/m2
21:56 18.2 °C 9.0 °C 1002.3 hPa NNW 18.3 km/h 35.6 km/h 55% 0.0 mm 265 W/m2
22:01 18.3 °C 9.1 °C 1002.6 hPa NNW 13.4 km/h 35.6 km/h 55% 0.0 mm 218 W/m2
22:04 18.2 °C 8.7 °C 1002.6 hPa NNW 14.8 km/h 33.1 km/h 54% 0.0 mm 212 W/m2
22:09 17.8 °C 8.1 °C 1002.3 hPa NW 30.6 km/h 50.0 km/h 53% 0.0 mm 228 W/m2
22:14 17.8 °C 8.4 °C 1002.3 hPa NW 17.2 km/h 50.0 km/h 54% 0.0 mm 260 W/m2
22:19 18.0 °C 8.8 °C 1002.3 hPa NW 23.3 km/h 43.9 km/h 55% 0.0 mm 239 W/m2
22:24 17.8 °C 8.4 °C 1002.3 hPa NNW 11.1 km/h 39.3 km/h 54% 0.0 mm 212 W/m2
22:29 17.7 °C 8.6 °C 1002.6 hPa NNW 14.8 km/h 39.3 km/h 55% 0.0 mm 198 W/m2
22:34 17.6 °C 8.4 °C 1002.6 hPa NW 28.0 km/h 41.7 km/h 55% 0.0 mm 159 W/m2
22:39 17.5 °C 8.1 °C 1002.6 hPa NW 25.6 km/h 41.7 km/h 54% 0.0 mm 142 W/m2
22:44 17.4 °C 8.3 °C 1002.6 hPa NW 15.8 km/h 41.7 km/h 55% 0.0 mm 129 W/m2
22:49 17.4 °C 8.8 °C 1002.6 hPa NW 18.3 km/h 34.3 km/h 57% 0.0 mm 113 W/m2
22:54 17.3 °C 8.2 °C 1002.6 hPa NW 19.5 km/h 33.1 km/h 55% 0.0 mm 96 W/m2
22:59 17.2 °C 8.1 °C 1002.9 hPa NW 15.8 km/h 46.5 km/h 55% 0.0 mm 97 W/m2
23:04 17.1 °C 8.0 °C 1002.9 hPa NW 19.5 km/h 46.5 km/h 55% 0.0 mm 91 W/m2
23:09 17.0 °C 8.2 °C 1002.9 hPa NW 17.2 km/h 30.6 km/h 56% 0.0 mm 97 W/m2
23:15 17.0 °C 8.7 °C 1003.3 hPa NW 13.4 km/h 30.6 km/h 58% 0.0 mm 113 W/m2
23:21 17.1 °C 8.5 °C 1003.3 hPa NW 17.2 km/h 28.0 km/h 57% 0.0 mm 127 W/m2
23:26 17.1 °C 8.8 °C 1003.6 hPa NW 7.2 km/h 28.0 km/h 58% 0.0 mm 94 W/m2
23:29 17.0 °C 8.4 °C 1003.6 hPa WNW 7.2 km/h 27.0 km/h 57% 0.0 mm 88 W/m2
23:34 17.0 °C 8.7 °C 1003.6 hPa NW 7.2 km/h 27.0 km/h 58% 0.0 mm 102 W/m2
23:44 16.9 °C 8.6 °C 1003.6 hPa NW 12.2 km/h 28.0 km/h 58% 0.0 mm 97 W/m2
23:49 16.9 °C 8.6 °C 1003.6 hPa NW 11.1 km/h 28.0 km/h 58% 0.0 mm 115 W/m2
23:54 17.0 °C 8.7 °C 1003.9 hPa NW 9.7 km/h 21.9 km/h 58% 0.0 mm 111 W/m2
23:57 16.9 °C 8.8 °C 1003.9 hPa NW 6.1 km/h 24.5 km/h 59% 0.0 mm 118 W/m2
Northern Hawkes Bay. New Zealand Historic Data
Compliments of Weather Underground - 2 mb